createdAt,value
2019-01-15T00:00:56.689Z,100186.61
2019-01-15T00:06:15.227Z,100192.12
2019-01-15T00:11:33.852Z,100193.78
2019-01-15T00:16:52.390Z,100197.42
2019-01-15T00:22:10.923Z,100199.01
2019-01-15T00:27:29.463Z,100188.88
2019-01-15T00:32:48.084Z,100201.39
2019-01-15T00:38:06.690Z,100206.37
2019-01-15T00:43:25.145Z,100208.20
2019-01-15T00:48:43.633Z,100202.90
2019-01-15T00:54:02.180Z,100193.34
2019-01-15T00:59:20.719Z,100183.72
2019-01-15T01:04:39.330Z,100187.44
2019-01-15T01:09:57.935Z,100200.04
2019-01-15T01:15:56.509Z,100195.48
2019-01-15T01:21:14.981Z,100198.81
2019-01-15T01:26:33.593Z,100190.77
2019-01-15T01:31:52.133Z,100191.48
2019-01-15T01:37:11.028Z,100194.14
2019-01-15T01:42:29.807Z,100187.41
2019-01-15T01:47:49.843Z,100196.16
2019-01-15T01:53:08.479Z,100201.11
2019-01-15T01:58:27.039Z,100211.38
2019-01-15T02:03:45.582Z,100217.98
2019-01-15T02:09:18.665Z,100216.13
2019-01-15T02:14:37.212Z,100210.37
2019-01-15T02:19:55.827Z,100211.17
2019-01-15T02:25:54.196Z,100218.34
2019-01-15T02:31:12.733Z,100232.20
2019-01-15T02:36:31.357Z,100230.39
2019-01-15T02:41:49.984Z,100204.10
2019-01-15T02:47:08.530Z,100201.55
2019-01-15T02:52:27.064Z,100178.58
2019-01-15T02:57:45.672Z,100163.67
2019-01-15T03:03:04.474Z,100181.11
2019-01-15T03:08:23.030Z,100186.41
2019-01-15T03:13:41.570Z,100186.13
2019-01-15T03:19:00.105Z,100180.89
2019-01-15T03:24:18.649Z,100175.52
2019-01-15T03:29:37.204Z,100173.63
2019-01-15T03:34:55.785Z,100160.20
2019-01-15T03:40:54.157Z,100162.05
2019-01-15T03:46:12.773Z,100164.16
2019-01-15T03:51:31.398Z,100160.36
2019-01-15T03:56:49.941Z,100160.36
2019-01-15T04:13:13.425Z,100141.67
2019-01-15T04:18:32.232Z,100139.28
2019-01-15T04:23:50.769Z,100134.59
2019-01-15T04:29:09.319Z,100144.90
2019-01-15T04:34:27.913Z,100138.28
2019-01-15T04:39:46.317Z,100129.95
2019-01-15T04:45:45.608Z,100116.02
2019-01-15T05:02:07.144Z,100116.69
2019-01-15T05:07:25.704Z,100113.59
2019-01-15T05:12:44.313Z,100108.17
2019-01-15T05:18:02.950Z,100106.40
2019-01-15T05:23:21.635Z,100105.92
2019-01-15T05:28:40.249Z,100108.64
2019-01-15T05:33:59.103Z,100099.58
2019-01-15T05:39:17.568Z,100093.33
2019-01-15T05:44:36.110Z,100099.09
2019-01-15T05:50:33.098Z,100096.08
2019-01-15T05:55:51.711Z,100087.09
2019-01-15T06:01:10.396Z,100086.41
2019-01-15T06:06:28.901Z,100075.98
2019-01-15T06:11:47.364Z,100080.75
2019-01-15T06:17:05.987Z,100069.83
2019-01-15T06:22:24.595Z,100066.59
2019-01-15T06:27:43.206Z,100057.30
2019-01-15T06:33:01.812Z,100044.14
2019-01-15T06:38:20.346Z,100039.91
2019-01-15T06:43:38.967Z,100043.27
2019-01-15T06:48:57.496Z,100045.27
2019-01-15T06:54:16.058Z,100040.77
2019-01-15T06:59:34.668Z,100050.30
2019-01-15T07:04:53.189Z,100038.05
2019-01-15T07:10:50.252Z,100052.64
2019-01-15T07:27:07.257Z,100065.59
2019-01-15T07:32:25.859Z,100057.76
2019-01-15T07:37:44.466Z,100064.14
2019-01-15T07:43:03.009Z,100052.38
2019-01-15T07:48:21.621Z,100047.78
2019-01-15T07:53:40.191Z,100043.67
2019-01-15T08:04:29.416Z,100034.67
2019-01-15T08:09:47.976Z,100035.36
2019-01-15T08:15:46.351Z,100034.73
2019-01-15T08:21:04.955Z,100034.05
2019-01-15T08:26:23.577Z,100042.34
2019-01-15T08:31:42.126Z,100033.08
2019-01-15T08:37:00.863Z,100047.05
2019-01-15T08:42:38.738Z,100032.16
2019-01-15T08:53:26.677Z,100041.60
2019-01-15T08:58:45.292Z,100048.09
2019-01-15T09:04:04.286Z,100045.48
2019-01-15T09:09:22.762Z,100054.19
2019-01-15T09:14:41.385Z,100058.53
2019-01-15T09:20:20.063Z,100055.61
2019-01-15T09:25:38.675Z,100053.84
2019-01-15T09:30:57.636Z,100057.47
2019-01-15T09:36:16.109Z,100063.24
2019-01-15T09:47:03.873Z,100044.56
2019-01-15T09:53:02.351Z,100052.45
2019-01-15T09:58:21.039Z,100051.80
2019-01-15T10:03:39.661Z,100036.34
2019-01-15T10:09:17.545Z,100031.42
2019-01-15T10:14:41.189Z,100025.83
2019-01-15T10:19:56.389Z,100022.04
2019-01-15T10:25:54.774Z,100016.45
2019-01-15T10:31:53.300Z,100003.81
2019-01-15T10:37:11.908Z,100007.08
2019-01-15T10:42:30.520Z,100016.78
2019-01-15T10:47:48.985Z,100026.98
2019-01-15T10:53:07.598Z,100016.60
2019-01-15T10:58:26.076Z,100018.59
2019-01-15T11:03:44.618Z,100009.20
2019-01-15T11:20:01.541Z,99995.20
2019-01-15T11:25:20.154Z,99997.34
2019-01-15T11:30:58.025Z,99994.99
2019-01-15T11:36:16.557Z,99994.99
2019-01-15T11:41:35.085Z,99992.15
2019-01-15T11:46:53.555Z,99982.08
2019-01-15T11:52:12.010Z,99979.60
2019-01-15T11:57:30.602Z,99972.19
2019-01-15T12:14:09.971Z,99962.61
2019-01-15T12:31:12.575Z,99961.20
2019-01-15T12:36:50.166Z,99950.17
2019-01-15T12:42:27.741Z,99933.73
2019-01-15T12:48:05.465Z,99944.16
2019-01-15T12:53:43.186Z,99926.06
2019-01-15T12:59:20.848Z,99917.11
2019-01-15T13:10:48.373Z,99909.19
2019-01-15T13:21:55.321Z,99894.97
2019-01-15T13:27:33.036Z,99904.66
2019-01-15T13:38:42.778Z,99909.95
2019-01-15T13:44:20.496Z,99907.70
2019-01-15T13:49:58.219Z,99914.73
2019-01-15T13:55:35.935Z,99908.97
2019-01-15T14:01:13.580Z,99907.70
2019-01-15T14:07:10.822Z,99901.13
2019-01-15T14:12:48.467Z,99914.08
2019-01-15T14:18:26.218Z,99904.01
2019-01-15T14:24:03.855Z,99904.14
2019-01-15T14:29:41.574Z,99898.33
2019-01-15T14:35:19.213Z,99895.88
2019-01-15T14:40:56.943Z,99893.61
2019-01-15T14:46:34.663Z,99883.73
2019-01-15T14:52:12.377Z,99875.23
2019-01-15T15:03:28.557Z,99869.48
2019-01-15T15:09:06.145Z,99862.23
2019-01-15T15:14:43.858Z,99866.81
2019-01-15T15:26:14.752Z,99873.86
2019-01-15T15:31:52.440Z,99873.37
2019-01-15T15:37:30.155Z,99874.80
2019-01-15T15:48:36.890Z,99861.93
2019-01-15T15:54:14.521Z,99866.09
2019-01-15T15:59:52.244Z,99873.98
2019-01-15T16:11:23.092Z,99869.05
2019-01-15T16:22:53.785Z,99849.25
2019-01-15T16:34:18.334Z,99862.59
2019-01-15T16:39:56.360Z,99858.47
2019-01-15T16:45:54.742Z,99862.30
2019-01-15T16:51:32.646Z,99854.70
2019-01-15T16:57:08.751Z,99856.99
2019-01-15T17:02:46.461Z,99856.67
2019-01-15T17:08:44.828Z,99857.84
2019-01-15T17:19:51.699Z,99842.53
2019-01-15T17:25:29.420Z,99843.84
2019-01-15T17:36:39.305Z,99836.27
2019-01-15T17:53:15.573Z,99838.06
2019-01-15T18:09:52.060Z,99845.64
2019-01-15T18:15:29.771Z,99842.03
2019-01-15T18:21:26.691Z,99842.03
2019-01-15T18:27:04.260Z,99842.53
2019-01-15T18:32:41.838Z,99831.36
2019-01-15T18:43:51.569Z,99827.02
2019-01-15T18:49:29.163Z,99819.79
2019-01-15T19:00:38.885Z,99830.16
2019-01-15T19:06:16.477Z,99823.59
2019-01-15T19:11:54.113Z,99818.00
2019-01-15T19:17:31.806Z,99815.02
2019-01-15T19:23:09.412Z,99820.61
2019-01-15T19:28:46.976Z,99813.87
2019-01-15T19:39:53.837Z,99823.44
2019-01-15T19:51:22.984Z,99819.65
2019-01-15T19:57:00.631Z,99809.80
2019-01-15T20:02:38.788Z,99816.88
2019-01-15T20:08:16.504Z,99815.72
2019-01-15T20:13:54.153Z,99814.54
2019-01-15T20:25:04.022Z,99820.14
2019-01-15T20:30:41.696Z,99817.84
2019-01-15T20:36:19.284Z,99814.75
2019-01-15T20:47:51.398Z,99810.94
2019-01-15T20:53:29.057Z,99812.12
2019-01-15T21:04:35.924Z,99809.61
2019-01-15T21:10:33.330Z,99809.11
2019-01-15T21:21:40.135Z,99807.30
2019-01-15T21:32:46.922Z,99805.50
2019-01-15T21:38:24.639Z,99809.27
2019-01-15T21:49:31.477Z,99803.00
2019-01-15T21:55:09.897Z,99797.57
2019-01-15T22:01:06.891Z,99796.72
2019-01-15T22:07:04.659Z,99793.78
2019-01-15T22:12:50.233Z,99801.00
2019-01-15T22:18:16.597Z,99790.16
2019-01-15T22:23:52.271Z,99784.89
2019-01-15T22:29:12.458Z,99776.17
2019-01-15T22:34:41.776Z,99769.94
2019-01-15T22:40:04.762Z,99760.39
2019-01-15T22:45:25.021Z,99755.75
2019-01-15T22:50:45.309Z,99749.23
2019-01-15T22:56:11.297Z,99750.55
2019-01-15T23:01:45.616Z,99738.17
2019-01-15T23:07:20.645Z,99740.03
2019-01-15T23:12:40.997Z,99733.75
2019-01-15T23:18:17.743Z,99725.41
2019-01-15T23:23:38.000Z,99722.25
2019-01-15T23:29:01.154Z,99716.14
2019-01-15T23:34:21.431Z,99714.36
2019-01-15T23:39:50.299Z,99716.34
2019-01-15T23:45:26.693Z,99708.55
2019-01-15T23:50:49.816Z,99712.36
2019-01-15T23:56:10.121Z,99700.17
